PWSweather.com
Personal Weather Stations
Station Observations
AC5JC
Greenleaf Peninsula, Waco, Waco, TX 76710

Greenleaf Peninsula, WacoWaco, TX 76710

Lat: 31.565, Lon: -97.198

Elevation: 570

Station Type: Ambient WS-1400IP

http://ac5jc.dyndns.org

High Low Average
Temperature 54.5°F12.5°C 48.9°F9.4°C 51.6°F10.9°C
Dew Point 53.7°F12.1°C 29.7°F-1.3°C 45.2°F7.3°C
Winds 9.8 mph 15.8 kmh Calm Calm 3.0 mph S4.8 kmh S
Wind Gusts 17.4 mph28.0 kmh -- 6.0 mph9.7 kmh
Humidity 99% 46% 81%
Pressure 29.65 in1004.1 mb 29.56 in1001.0 mb -
Precipitation 0.48 in12.2 mm - -
Hour Temp Dew Point Humidity Winds Wind Gusts Pressure Precip Precip Rate Daily Precip Total
12:00 AM 48.9°F9.4°C 31.1°F-0.5°C 50% 4.0 mph SE6.4 kmh SE 7.4 mph11.9 kmh 29.65 in1004.1 mb 0.00 in0.0 mm 0.00 in0.0 mm 0.00 in0.0 mm
12:05 AM 48.9°F9.4°C 30.9°F-0.6°C 50% 6.1 mph SSE9.8 kmh SSE 9.8 mph15.8 kmh 29.64 in1003.7 mb 0.00 in0.0 mm 0.00 in0.0 mm 0.00 in0.0 mm
12:10 AM 48.9°F9.4°C 30.6°F-0.8°C 49% 5.3 mph SSE8.5 kmh SSE 9.8 mph15.8 kmh 29.64 in1003.7 mb 0.00 in0.0 mm 0.00 in0.0 mm 0.00 in0.0 mm
12:15 AM 48.9°F9.4°C 30.6°F-0.8°C 49% 7.5 mph SSE12.1 kmh SSE 15.0 mph24.1 kmh 29.64 in1003.7 mb 0.00 in0.0 mm 0.00 in0.0 mm 0.00 in0.0 mm
12:20 AM 48.9°F9.4°C 30.3°F-0.9°C 48% 8.4 mph SSE13.5 kmh SSE 12.3 mph19.8 kmh 29.64 in1003.7 mb 0.00 in0.0 mm 0.00 in0.0 mm 0.00 in0.0 mm
12:25 AM 48.9°F9.4°C 30.1°F-1.1°C 48% 8.0 mph SSE12.9 kmh SSE 15.0 mph24.1 kmh 29.64 in1003.7 mb 0.00 in0.0 mm 0.00 in0.0 mm 0.00 in0.0 mm
12:30 AM 49.1°F9.5°C 30.2°F-1.0°C 48% 6.5 mph S10.5 kmh S 12.3 mph19.8 kmh 29.64 in1003.7 mb 0.00 in0.0 mm 0.00 in0.0 mm 0.00 in0.0 mm
12:35 AM 49.1°F9.5°C 30.3°F-0.9°C 48% 8.2 mph SE13.2 kmh SE 12.3 mph19.8 kmh 29.64 in1003.7 mb 0.00 in0.0 mm 0.00 in0.0 mm 0.00 in0.0 mm
12:40 AM 49.1°F9.5°C 29.7°F-1.3°C 47% 7.0 mph SSE11.3 kmh SSE 15.0 mph24.1 kmh 29.64 in1003.7 mb 0.00 in0.0 mm 0.00 in0.0 mm 0.00 in0.0 mm
12:45 AM 49.2°F9.6°C 29.8°F-1.2°C 47% 7.0 mph SSE11.3 kmh SSE 15.0 mph24.1 kmh 29.64 in1003.7 mb 0.00 in0.0 mm 0.00 in0.0 mm 0.00 in0.0 mm
12:50 AM 49.3°F9.6°C 30.0°F-1.1°C 47% 6.6 mph SSE10.6 kmh SSE 12.3 mph19.8 kmh 29.63 in1003.4 mb 0.00 in0.0 mm 0.00 in0.0 mm 0.00 in0.0 mm
12:55 AM 49.3°F9.6°C 30.1°F-1.1°C 47% 8.5 mph S13.7 kmh S 12.3 mph19.8 kmh 29.63 in1003.4 mb 0.00 in0.0 mm 0.00 in0.0 mm 0.00 in0.0 mm
01:00 AM 49.4°F9.7°C 29.9°F-1.2°C 47% 5.2 mph S8.4 kmh S 9.8 mph15.8 kmh 29.63 in1003.4 mb 0.00 in0.0 mm 0.00 in0.0 mm 0.00 in0.0 mm
01:05 AM 49.5°F9.7°C 29.7°F-1.3°C 46% 6.9 mph SSE11.1 kmh SSE 12.3 mph19.8 kmh 29.63 in1003.4 mb 0.00 in0.0 mm 0.00 in0.0 mm 0.00 in0.0 mm
01:10 AM 49.5°F9.7°C 29.7°F-1.3°C 46% 6.6 mph SSE10.6 kmh SSE 15.0 mph24.1 kmh 29.63 in1003.4 mb 0.00 in0.0 mm 0.00 in0.0 mm 0.00 in0.0 mm
01:15 AM 49.6°F9.8°C 30.2°F-1.0°C 47% 8.7 mph S14.0 kmh S 17.4 mph28.0 kmh 29.62 in1003.0 mb 0.00 in0.0 mm 0.00 in0.0 mm 0.00 in0.0 mm
01:20 AM 49.8°F9.9°C 30.7°F-0.7°C 48% 9.8 mph SSE15.8 kmh SSE 15.0 mph24.1 kmh 29.62 in1003.0 mb 0.00 in0.0 mm 0.00 in0.0 mm 0.00 in0.0 mm
01:25 AM 49.9°F9.9°C 31.1°F-0.5°C 48% 8.2 mph S13.2 kmh S 12.3 mph19.8 kmh 29.62 in1003.0 mb 0.00 in0.0 mm 0.00 in0.0 mm 0.00 in0.0 mm
01:30 AM 50.0°F10.0°C 31.6°F-0.2°C 49% 9.1 mph S14.6 kmh S 15.0 mph24.1 kmh 29.62 in1003.0 mb 0.00 in0.0 mm 0.00 in0.0 mm 0.00 in0.0 mm
01:35 AM 50.0°F10.0°C 31.6°F-0.2°C 49% 7.6 mph SSE12.2 kmh SSE 12.3 mph19.8 kmh 29.62 in1003.0 mb 0.00 in0.0 mm 0.00 in0.0 mm 0.00 in0.0 mm
01:40 AM 50.1°F10.1°C 31.7°F-0.2°C 49% 6.9 mph S11.1 kmh S 12.3 mph19.8 kmh 29.61 in1002.7 mb 0.00 in0.0 mm 0.00 in0.0 mm 0.00 in0.0 mm
01:45 AM 50.2°F10.1°C 32.3°F0.2°C 50% 7.2 mph S11.6 kmh S 12.3 mph19.8 kmh 29.62 in1003.0 mb 0.00 in0.0 mm 0.00 in0.0 mm 0.00 in0.0 mm
01:50 AM 50.2°F10.1°C 32.3°F0.2°C 50% 9.3 mph SSE15.0 kmh SSE 15.0 mph24.1 kmh 29.61 in1002.7 mb 0.00 in0.0 mm 0.00 in0.0 mm 0.00 in0.0 mm
01:55 AM 50.2°F10.1°C 32.3°F0.2°C 50% 9.7 mph S15.6 kmh S 17.4 mph28.0 kmh 29.61 in1002.7 mb 0.00 in0.0 mm 0.00 in0.0 mm 0.00 in0.0 mm
02:00 AM 50.2°F10.1°C 32.3°F0.2°C 50% 6.5 mph S10.5 kmh S 12.3 mph19.8 kmh 29.61 in1002.7 mb 0.00 in0.0 mm 0.00 in0.0 mm 0.00 in0.0 mm
02:05 AM 50.2°F10.1°C 32.6°F0.3°C 51% 9.2 mph S14.8 kmh S 12.3 mph19.8 kmh 29.62 in1003.0 mb 0.00 in0.0 mm 0.00 in0.0 mm 0.00 in0.0 mm
02:10 AM 50.2°F10.1°C 32.8°F0.4°C 51% 6.9 mph SSE11.1 kmh SSE 15.0 mph24.1 kmh 29.62 in1003.0 mb 0.00 in0.0 mm 0.00 in0.0 mm 0.00 in0.0 mm
02:15 AM 50.2°F10.1°C 32.8°F0.4°C 51% 6.2 mph S10.0 kmh S 17.4 mph28.0 kmh 29.61 in1002.7 mb 0.00 in0.0 mm 0.00 in0.0 mm 0.00 in0.0 mm
02:20 AM 50.2°F10.1°C 32.8°F0.4°C 51% 5.1 mph SSE8.2 kmh SSE 9.8 mph15.8 kmh 29.62 in1003.0 mb 0.00 in0.0 mm 0.00 in0.0 mm 0.00 in0.0 mm
02:25 AM 50.2°F10.1°C 33.0°F0.6°C 52% 5.9 mph SSE9.5 kmh SSE 15.0 mph24.1 kmh 29.61 in1002.7 mb 0.00 in0.0 mm 0.00 in0.0 mm 0.00 in0.0 mm
02:30 AM 50.1°F10.1°C 33.2°F0.7°C 52% 4.4 mph SE7.1 kmh SE 9.8 mph15.8 kmh 29.61 in1002.7 mb 0.00 in0.0 mm 0.00 in0.0 mm 0.00 in0.0 mm
02:35 AM 50.0°F10.0°C 33.3°F0.7°C 52% 3.8 mph SSE6.1 kmh SSE 9.8 mph15.8 kmh 29.61 in1002.7 mb 0.00 in0.0 mm 0.00 in0.0 mm 0.00 in0.0 mm
02:40 AM 50.0°F10.0°C 33.5°F0.8°C 53% 4.5 mph SSE7.2 kmh SSE 9.8 mph15.8 kmh 29.61 in1002.7 mb 0.00 in0.0 mm 0.00 in0.0 mm 0.00 in0.0 mm
02:45 AM 49.9°F9.9°C 33.5°F0.8°C 53% 4.0 mph S6.4 kmh S 9.8 mph15.8 kmh 29.61 in1002.7 mb 0.00 in0.0 mm 0.00 in0.0 mm 0.00 in0.0 mm
02:50 AM 49.8°F9.9°C 33.4°F0.8°C 53% 3.5 mph S5.6 kmh S 7.4 mph11.9 kmh 29.62 in1003.0 mb 0.00 in0.0 mm 0.00 in0.0 mm 0.00 in0.0 mm
02:55 AM 49.7°F9.8°C 33.4°F0.8°C 53% 4.7 mph SSE7.6 kmh SSE 9.8 mph15.8 kmh 29.61 in1002.7 mb 0.00 in0.0 mm 0.00 in0.0 mm 0.00 in0.0 mm
03:00 AM 49.6°F9.8°C 33.2°F0.7°C 53% 5.4 mph SSE8.7 kmh SSE 9.8 mph15.8 kmh 29.61 in1002.7 mb 0.00 in0.0 mm 0.00 in0.0 mm 0.00 in0.0 mm
03:05 AM 49.6°F9.8°C 33.3°F0.7°C 53% 6.7 mph SSE10.8 kmh SSE 9.8 mph15.8 kmh 29.61 in1002.7 mb 0.00 in0.0 mm 0.00 in0.0 mm 0.00 in0.0 mm
03:10 AM 49.6°F9.8°C 33.6°F0.9°C 54% 4.2 mph SSE6.8 kmh SSE 9.8 mph15.8 kmh 29.60 in1002.4 mb 0.00 in0.0 mm 0.00 in0.0 mm 0.00 in0.0 mm
03:15 AM 49.5°F9.7°C 33.6°F0.9°C 54% 3.7 mph SSE6.0 kmh SSE 7.4 mph11.9 kmh 29.61 in1002.7 mb 0.00 in0.0 mm 0.00 in0.0 mm 0.00 in0.0 mm
03:20 AM 49.5°F9.7°C 33.6°F0.9°C 54% 4.7 mph S7.6 kmh S 9.8 mph15.8 kmh 29.62 in1003.0 mb 0.00 in0.0 mm 0.00 in0.0 mm 0.00 in0.0 mm
03:25 AM 49.5°F9.7°C 33.6°F0.9°C 54% 4.1 mph SSE6.6 kmh SSE 9.8 mph15.8 kmh 29.61 in1002.7 mb 0.00 in0.0 mm 0.00 in0.0 mm 0.00 in0.0 mm
03:30 AM 49.5°F9.7°C 33.7°F0.9°C 54% 4.1 mph S6.6 kmh S 7.4 mph11.9 kmh 29.61 in1002.7 mb 0.00 in0.0 mm 0.00 in0.0 mm 0.00 in0.0 mm
03:35 AM 49.4°F9.7°C 33.9°F1.1°C 55% 4.5 mph SSE7.2 kmh SSE 9.8 mph15.8 kmh 29.61 in1002.7 mb 0.00 in0.0 mm 0.00 in0.0 mm 0.00 in0.0 mm
03:40 AM 49.3°F9.6°C 33.8°F1.0°C 55% 5.1 mph SSE8.2 kmh SSE 9.8 mph15.8 kmh 29.60 in1002.4 mb 0.00 in0.0 mm 0.00 in0.0 mm 0.00 in0.0 mm
03:45 AM 49.3°F9.6°C 33.8°F1.0°C 55% 4.3 mph SSE6.9 kmh SSE 9.8 mph15.8 kmh 29.60 in1002.4 mb 0.00 in0.0 mm 0.00 in0.0 mm 0.00 in0.0 mm
03:50 AM 49.3°F9.6°C 33.8°F1.0°C 55% 2.6 mph SSE4.2 kmh SSE 4.9 mph7.9 kmh 29.61 in1002.7 mb 0.00 in0.0 mm 0.00 in0.0 mm 0.00 in0.0 mm
03:55 AM 49.3°F9.6°C 33.7°F0.9°C 55% 4.4 mph SSE7.1 kmh SSE 12.3 mph19.8 kmh 29.61 in1002.7 mb 0.00 in0.0 mm 0.00 in0.0 mm 0.00 in0.0 mm
04:00 AM 49.3°F9.6°C 33.4°F0.8°C 54% 2.6 mph SSE4.2 kmh SSE 7.4 mph11.9 kmh 29.60 in1002.4 mb 0.00 in0.0 mm 0.00 in0.0 mm 0.00 in0.0 mm
04:05 AM 49.4°F9.7°C 33.4°F0.8°C 54% 3.5 mph S5.6 kmh S 7.4 mph11.9 kmh 29.60 in1002.4 mb 0.00 in0.0 mm 0.00 in0.0 mm 0.00 in0.0 mm
04:10 AM 49.5°F9.7°C 33.1°F0.6°C 53% 5.7 mph S9.2 kmh S 9.8 mph15.8 kmh 29.60 in1002.4 mb 0.00 in0.0 mm 0.00 in0.0 mm 0.00 in0.0 mm
04:15 AM 49.5°F9.7°C 33.1°F0.6°C 53% 5.9 mph SSE9.5 kmh SSE 9.8 mph15.8 kmh 29.60 in1002.4 mb 0.00 in0.0 mm 0.00 in0.0 mm 0.00 in0.0 mm
04:20 AM 49.5°F9.7°C 33.1°F0.6°C 53% 1.8 mph SSE2.9 kmh SSE 4.9 mph7.9 kmh 29.59 in1002.0 mb 0.00 in0.0 mm 0.00 in0.0 mm 0.00 in0.0 mm
04:25 AM 49.5°F9.7°C 33.6°F0.9°C 54% 2.6 mph S4.2 kmh S 7.4 mph11.9 kmh 29.60 in1002.4 mb 0.00 in0.0 mm 0.00 in0.0 mm 0.00 in0.0 mm
04:30 AM 49.5°F9.7°C 33.6°F0.9°C 54% 5.4 mph S8.7 kmh S 12.3 mph19.8 kmh 29.60 in1002.4 mb 0.00 in0.0 mm 0.00 in0.0 mm 0.00 in0.0 mm
04:35 AM 49.5°F9.7°C 33.5°F0.8°C 54% 1.7 mph ESE2.7 kmh ESE 4.9 mph7.9 kmh 29.59 in1002.0 mb 0.00 in0.0 mm 0.00 in0.0 mm 0.00 in0.0 mm
04:40 AM 49.3°F9.6°C 33.4°F0.8°C 54% 1.9 mph S3.1 kmh S 4.9 mph7.9 kmh 29.60 in1002.4 mb 0.00 in0.0 mm 0.00 in0.0 mm 0.00 in0.0 mm
04:45 AM 49.3°F9.6°C 33.4°F0.8°C 54% 1.4 mph SSE2.3 kmh SSE 7.4 mph11.9 kmh 29.60 in1002.4 mb 0.00 in0.0 mm 0.00 in0.0 mm 0.00 in0.0 mm
04:50 AM 49.3°F9.6°C 33.4°F0.8°C 54% 1.2 mph SSE1.9 kmh SSE 4.9 mph7.9 kmh 29.60 in1002.4 mb 0.00 in0.0 mm 0.00 in0.0 mm 0.00 in0.0 mm
04:55 AM 49.3°F9.6°C 33.4°F0.8°C 54% 1.4 mph S2.3 kmh S 4.9 mph7.9 kmh 29.59 in1002.0 mb 0.00 in0.0 mm 0.00 in0.0 mm 0.00 in0.0 mm
05:00 AM 49.3°F9.6°C 33.4°F0.8°C 54% 2.8 mph SE4.5 kmh SE 7.4 mph11.9 kmh 29.59 in1002.0 mb 0.00 in0.0 mm 0.00 in0.0 mm 0.00 in0.0 mm
05:05 AM 49.3°F9.6°C 33.4°F0.8°C 54% 1.9 mph SE3.1 kmh SE 4.9 mph7.9 kmh 29.59 in1002.0 mb 0.00 in0.0 mm 0.00 in0.0 mm 0.00 in0.0 mm
05:10 AM 49.3°F9.6°C 33.8°F1.0°C 55% 4.3 mph SSE6.9 kmh SSE 9.8 mph15.8 kmh 29.59 in1002.0 mb 0.00 in0.0 mm 0.00 in0.0 mm 0.00 in0.0 mm
05:15 AM 49.3°F9.6°C 34.2°F1.2°C 56% 6.1 mph SE9.8 kmh SE 12.3 mph19.8 kmh 29.58 in1001.7 mb 0.00 in0.0 mm 0.00 in0.0 mm 0.00 in0.0 mm
05:20 AM 49.5°F9.7°C 34.7°F1.5°C 57% 3.9 mph SE6.3 kmh SE 9.8 mph15.8 kmh 29.58 in1001.7 mb 0.00 in0.0 mm 0.00 in0.0 mm 0.00 in0.0 mm
05:25 AM 49.5°F9.7°C 35.0°F1.7°C 57% 3.2 mph SE5.1 kmh SE 7.4 mph11.9 kmh 29.58 in1001.7 mb 0.00 in0.0 mm 0.00 in0.0 mm 0.00 in0.0 mm
05:30 AM 49.5°F9.7°C 35.4°F1.9°C 58% 5.0 mph SSE8.0 kmh SSE 9.8 mph15.8 kmh 29.58 in1001.7 mb 0.00 in0.0 mm 0.00 in0.0 mm 0.00 in0.0 mm
05:35 AM 49.5°F9.7°C 35.8°F2.1°C 59% 3.8 mph S6.1 kmh S 12.3 mph19.8 kmh 29.58 in1001.7 mb 0.00 in0.0 mm 0.00 in0.0 mm 0.00 in0.0 mm
05:40 AM 49.5°F9.7°C 36.2°F2.3°C 60% 4.6 mph SSE7.4 kmh SSE 7.4 mph11.9 kmh 29.59 in1002.0 mb 0.00 in0.0 mm 0.00 in0.0 mm 0.00 in0.0 mm
05:45 AM 49.5°F9.7°C 36.4°F2.4°C 60% 5.7 mph SE9.2 kmh SE 9.8 mph15.8 kmh 29.59 in1002.0 mb 0.00 in0.0 mm 0.00 in0.0 mm 0.00 in0.0 mm
05:50 AM 49.5°F9.7°C 36.6°F2.6°C 61% 5.9 mph SE9.5 kmh SE 15.0 mph24.1 kmh 29.59 in1002.0 mb 0.00 in0.0 mm 0.00 in0.0 mm 0.00 in0.0 mm
05:55 AM 49.5°F9.7°C 36.6°F2.6°C 61% 5.1 mph SE8.2 kmh SE 7.4 mph11.9 kmh 29.59 in1002.0 mb 0.00 in0.0 mm 0.00 in0.0 mm 0.00 in0.0 mm
06:00 AM 49.6°F9.8°C 36.7°F2.6°C 61% 4.1 mph SSE6.6 kmh SSE 9.8 mph15.8 kmh 29.59 in1002.0 mb 0.00 in0.0 mm 0.00 in0.0 mm 0.00 in0.0 mm
06:05 AM 49.6°F9.8°C 36.8°F2.7°C 61% 4.0 mph SE6.4 kmh SE 7.4 mph11.9 kmh 29.59 in1002.0 mb 0.00 in0.0 mm 0.00 in0.0 mm 0.00 in0.0 mm
06:10 AM 49.6°F9.8°C 36.8°F2.7°C 61% 3.3 mph SE5.3 kmh SE 7.4 mph11.9 kmh 29.59 in1002.0 mb 0.00 in0.0 mm 0.00 in0.0 mm 0.00 in0.0 mm
06:15 AM 49.6°F9.8°C 36.7°F2.6°C 61% 2.2 mph SSE3.5 kmh SSE 7.4 mph11.9 kmh 29.59 in1002.0 mb 0.00 in0.0 mm 0.00 in0.0 mm 0.00 in0.0 mm
06:20 AM 49.8°F9.9°C 36.9°F2.7°C 61% 4.8 mph SE7.7 kmh SE 9.8 mph15.8 kmh 29.60 in1002.4 mb 0.00 in0.0 mm 0.00 in0.0 mm 0.00 in0.0 mm
06:25 AM 49.8°F9.9°C 36.9°F2.7°C 61% 5.0 mph SSE8.0 kmh SSE 9.8 mph15.8 kmh 29.60 in1002.4 mb 0.00 in0.0 mm 0.00 in0.0 mm 0.00 in0.0 mm
06:30 AM 49.8°F9.9°C 36.9°F2.7°C 61% 2.6 mph SSE4.2 kmh SSE 7.4 mph11.9 kmh 29.60 in1002.4 mb 0.00 in0.0 mm 0.00 in0.0 mm 0.00 in0.0 mm
06:35 AM 49.8°F9.9°C 37.2°F2.9°C 62% 3.1 mph SSE5.0 kmh SSE 7.4 mph11.9 kmh 29.61 in1002.7 mb 0.00 in0.0 mm 0.00 in0.0 mm 0.00 in0.0 mm
06:40 AM 49.9°F9.9°C 37.4°F3.0°C 62% 1.8 mph S2.9 kmh S 4.9 mph7.9 kmh 29.61 in1002.7 mb 0.00 in0.0 mm 0.00 in0.0 mm 0.00 in0.0 mm
06:45 AM 50.0°F10.0°C 37.5°F3.1°C 62% 1.0 mph S1.6 kmh S 4.9 mph7.9 kmh 29.61 in1002.7 mb 0.00 in0.0 mm 0.00 in0.0 mm 0.00 in0.0 mm
06:50 AM 50.0°F10.0°C 37.5°F3.1°C 62% 2.4 mph SE3.9 kmh SE 4.9 mph7.9 kmh 29.61 in1002.7 mb 0.00 in0.0 mm 0.00 in0.0 mm 0.00 in0.0 mm
06:55 AM 50.2°F10.1°C 37.7°F3.2°C 62% 3.6 mph SE5.8 kmh SE 7.4 mph11.9 kmh 29.61 in1002.7 mb 0.00 in0.0 mm 0.00 in0.0 mm 0.00 in0.0 mm
07:00 AM 50.3°F10.2°C 37.8°F3.2°C 62% 2.1 mph SE3.4 kmh SE 4.9 mph7.9 kmh 29.61 in1002.7 mb 0.00 in0.0 mm 0.00 in0.0 mm 0.00 in0.0 mm
07:05 AM 50.4°F10.2°C 37.9°F3.3°C 62% 3.6 mph SSE5.8 kmh SSE 7.4 mph11.9 kmh 29.61 in1002.7 mb 0.00 in0.0 mm 0.00 in0.0 mm 0.00 in0.0 mm
07:10 AM 50.5°F10.3°C 38.0°F3.3°C 62% 3.0 mph S4.8 kmh S 7.4 mph11.9 kmh 29.61 in1002.7 mb 0.00 in0.0 mm 0.00 in0.0 mm 0.00 in0.0 mm
07:15 AM 50.7°F10.4°C 38.2°F3.4°C 62% 5.2 mph SSE8.4 kmh SSE 7.4 mph11.9 kmh 29.61 in1002.7 mb 0.00 in0.0 mm 0.00 in0.0 mm 0.00 in0.0 mm
07:20 AM 50.8°F10.4°C 38.3°F3.5°C 62% 3.8 mph SSE6.1 kmh SSE 9.8 mph15.8 kmh 29.62 in1003.0 mb 0.00 in0.0 mm 0.00 in0.0 mm 0.00 in0.0 mm
07:25 AM 50.9°F10.5°C 38.4°F3.6°C 62% 1.8 mph SSE2.9 kmh SSE 4.9 mph7.9 kmh 29.62 in1003.0 mb 0.00 in0.0 mm 0.00 in0.0 mm 0.00 in0.0 mm
07:30 AM 51.0°F10.6°C 38.5°F3.6°C 62% 2.7 mph SSE4.3 kmh SSE 7.4 mph11.9 kmh 29.61 in1002.7 mb 0.00 in0.0 mm 0.00 in0.0 mm 0.00 in0.0 mm
07:35 AM 51.1°F10.6°C 38.5°F3.6°C 62% 6.1 mph SSE9.8 kmh SSE 12.3 mph19.8 kmh 29.62 in1003.0 mb 0.00 in0.0 mm 0.00 in0.0 mm 0.00 in0.0 mm
07:40 AM 51.1°F10.6°C 38.7°F3.7°C 62% 3.1 mph S5.0 kmh S 7.4 mph11.9 kmh 29.62 in1003.0 mb 0.00 in0.0 mm 0.00 in0.0 mm 0.00 in0.0 mm
07:45 AM 51.1°F10.6°C 38.9°F3.8°C 63% 2.9 mph SSE4.7 kmh SSE 7.4 mph11.9 kmh 29.62 in1003.0 mb 0.00 in0.0 mm 0.00 in0.0 mm 0.00 in0.0 mm
07:50 AM 51.2°F10.7°C 39.0°F3.9°C 63% 4.2 mph SE6.8 kmh SE 7.4 mph11.9 kmh 29.61 in1002.7 mb 0.00 in0.0 mm 0.00 in0.0 mm 0.00 in0.0 mm
07:55 AM 51.3°F10.7°C 39.1°F3.9°C 63% 6.5 mph SSE10.5 kmh SSE 9.8 mph15.8 kmh 29.61 in1002.7 mb 0.00 in0.0 mm 0.00 in0.0 mm 0.00 in0.0 mm
08:00 AM 51.3°F10.7°C 39.1°F3.9°C 63% 6.7 mph SSE10.8 kmh SSE 12.3 mph19.8 kmh 29.62 in1003.0 mb 0.00 in0.0 mm 0.00 in0.0 mm 0.00 in0.0 mm
08:05 AM 51.3°F10.7°C 39.1°F3.9°C 63% 2.4 mph SSE3.9 kmh SSE 4.9 mph7.9 kmh 29.62 in1003.0 mb 0.00 in0.0 mm 0.00 in0.0 mm 0.00 in0.0 mm
08:10 AM 51.3°F10.7°C 39.2°F4.0°C 63% 3.5 mph S5.6 kmh S 7.4 mph11.9 kmh 29.62 in1003.0 mb 0.00 in0.0 mm 0.00 in0.0 mm 0.00 in0.0 mm
08:15 AM 51.3°F10.7°C 39.6°F4.2°C 64% 4.4 mph SSE7.1 kmh SSE 12.3 mph19.8 kmh 29.62 in1003.0 mb 0.00 in0.0 mm 0.00 in0.0 mm 0.00 in0.0 mm
08:20 AM 51.4°F10.8°C 39.6°F4.2°C 64% 4.6 mph S7.4 kmh S 9.8 mph15.8 kmh 29.62 in1003.0 mb 0.00 in0.0 mm 0.00 in0.0 mm 0.00 in0.0 mm
08:25 AM 51.4°F10.8°C 39.5°F4.2°C 64% 5.3 mph SSE8.5 kmh SSE 12.3 mph19.8 kmh 29.63 in1003.4 mb 0.00 in0.0 mm 0.00 in0.0 mm 0.00 in0.0 mm
08:30 AM 51.4°F10.8°C 39.8°F4.3°C 64% 5.6 mph SSE9.0 kmh SSE 12.3 mph19.8 kmh 29.62 in1003.0 mb 0.00 in0.0 mm 0.00 in0.0 mm 0.00 in0.0 mm
08:35 AM 51.4°F10.8°C 40.5°F4.7°C 66% 4.5 mph S7.2 kmh S 9.8 mph15.8 kmh 29.62 in1003.0 mb 0.00 in0.0 mm 0.00 in0.0 mm 0.00 in0.0 mm
08:40 AM 51.4°F10.8°C 41.8°F5.4°C 70% 5.1 mph S8.2 kmh S 12.3 mph19.8 kmh 29.63 in1003.4 mb 0.00 in0.0 mm 0.00 in0.0 mm 0.00 in0.0 mm
08:45 AM 51.3°F10.7°C 42.4°F5.8°C 72% 6.6 mph SSE10.6 kmh SSE 12.3 mph19.8 kmh 29.63 in1003.4 mb 0.00 in0.0 mm 0.00 in0.0 mm 0.00 in0.0 mm
08:50 AM 51.2°F10.7°C 43.0°F6.1°C 73% 3.1 mph S5.0 kmh S 7.4 mph11.9 kmh 29.63 in1003.4 mb 0.00 in0.0 mm 0.00 in0.0 mm 0.00 in0.0 mm
08:55 AM 51.1°F10.6°C 43.3°F6.3°C 75% 5.4 mph S8.7 kmh S 9.8 mph15.8 kmh 29.63 in1003.4 mb 0.00 in0.0 mm 0.00 in0.0 mm 0.00 in0.0 mm
09:00 AM 50.9°F10.5°C 43.7°F6.5°C 76% 3.2 mph SSE5.1 kmh SSE 9.8 mph15.8 kmh 29.64 in1003.7 mb 0.00 in0.0 mm 0.00 in0.0 mm 0.00 in0.0 mm
09:05 AM 50.7°F10.4°C 44.2°F6.8°C 78% 2.8 mph S4.5 kmh S 7.4 mph11.9 kmh 29.64 in1003.7 mb 0.00 in0.0 mm 0.00 in0.0 mm 0.00 in0.0 mm
09:10 AM 50.5°F10.3°C 44.4°F6.9°C 79% 1.7 mph SSE2.7 kmh SSE 4.9 mph7.9 kmh 29.64 in1003.7 mb 0.00 in0.0 mm 0.00 in0.0 mm 0.00 in0.0 mm
09:15 AM 50.5°F10.3°C 44.7°F7.1°C 80% 3.9 mph S6.3 kmh S 7.4 mph11.9 kmh 29.64 in1003.7 mb 0.00 in0.0 mm 0.00 in0.0 mm 0.00 in0.0 mm
09:20 AM 50.5°F10.3°C 45.0°F7.2°C 81% 4.2 mph S6.8 kmh S 7.4 mph11.9 kmh 29.63 in1003.4 mb 0.00 in0.0 mm 0.00 in0.0 mm 0.00 in0.0 mm
09:25 AM 50.4°F10.2°C 45.4°F7.4°C 83% 2.8 mph SSE4.5 kmh SSE 7.4 mph11.9 kmh 29.64 in1003.7 mb 0.00 in0.0 mm 0.00 in0.0 mm 0.00 in0.0 mm
09:30 AM 50.2°F10.1°C 45.6°F7.6°C 84% 3.7 mph SSE6.0 kmh SSE 7.4 mph11.9 kmh 29.64 in1003.7 mb 0.00 in0.0 mm 0.00 in0.0 mm 0.00 in0.0 mm
09:35 AM 50.2°F10.1°C 45.8°F7.7°C 85% 5.0 mph S8.0 kmh S 9.8 mph15.8 kmh 29.64 in1003.7 mb 0.00 in0.0 mm 0.00 in0.0 mm 0.00 in0.0 mm
09:40 AM 50.0°F10.0°C 45.7°F7.6°C 85% 3.1 mph SSE5.0 kmh SSE 9.8 mph15.8 kmh 29.64 in1003.7 mb 0.00 in0.0 mm 0.00 in0.0 mm 0.00 in0.0 mm
09:45 AM 50.0°F10.0°C 45.7°F7.6°C 85% 2.5 mph SSE4.0 kmh SSE 7.4 mph11.9 kmh 29.64 in1003.7 mb 0.00 in0.0 mm 0.00 in0.0 mm 0.00 in0.0 mm
09:50 AM 50.0°F10.0°C 45.7°F7.6°C 85% 2.8 mph SE4.5 kmh SE 4.9 mph7.9 kmh 29.65 in1004.1 mb 0.00 in0.0 mm 0.00 in0.0 mm 0.00 in0.0 mm
09:55 AM 50.1°F10.1°C 45.7°F7.6°C 85% 4.0 mph S6.4 kmh S 7.4 mph11.9 kmh 29.65 in1004.1 mb 0.00 in0.0 mm 0.00 in0.0 mm 0.00 in0.0 mm
10:00 AM 50.2°F10.1°C 45.9°F7.7°C 85% 2.0 mph S3.2 kmh S 4.9 mph7.9 kmh 29.65 in1004.1 mb 0.00 in0.0 mm 0.00 in0.0 mm 0.00 in0.0 mm
10:05 AM 50.3°F10.2°C 46.1°F7.8°C 85% 2.8 mph SSE4.5 kmh SSE 7.4 mph11.9 kmh 29.65 in1004.1 mb 0.00 in0.0 mm 0.00 in0.0 mm 0.00 in0.0 mm
10:10 AM 50.4°F10.2°C 46.5°F8.1°C 86% 1.8 mph E2.9 kmh E 4.9 mph7.9 kmh 29.65 in1004.1 mb 0.00 in0.0 mm 0.00 in0.0 mm 0.00 in0.0 mm
10:15 AM 50.4°F10.2°C 46.8°F8.2°C 87% 2.4 mph ESE3.9 kmh ESE 4.9 mph7.9 kmh 29.65 in1004.1 mb 0.00 in0.0 mm 0.00 in0.0 mm 0.00 in0.0 mm
10:20 AM 50.4°F10.2°C 47.2°F8.4°C 89% 2.1 mph SSE3.4 kmh SSE 4.9 mph7.9 kmh 29.65 in1004.1 mb 0.00 in0.0 mm 0.00 in0.0 mm 0.00 in0.0 mm
10:25 AM 50.3°F10.2°C 47.5°F8.6°C 90% 1.0 mph E1.6 kmh E 4.9 mph7.9 kmh 29.65 in1004.1 mb 0.00 in0.0 mm 0.00 in0.0 mm 0.00 in0.0 mm
10:30 AM 50.2°F10.1°C 47.6°F8.7°C 91% 0.3 mph E0.5 kmh E 2.5 mph4.0 kmh 29.65 in1004.1 mb 0.00 in0.0 mm 0.00 in0.0 mm 0.00 in0.0 mm
10:35 AM 50.1°F10.1°C 47.7°F8.7°C 92% 0.1 mph E0.2 kmh E 2.5 mph4.0 kmh 29.65 in1004.1 mb 0.00 in0.0 mm 0.00 in0.0 mm 0.00 in0.0 mm
10:40 AM 50.0°F10.0°C 48.0°F8.9°C 93% 0.7 mph E1.1 kmh E 4.9 mph7.9 kmh 29.65 in1004.1 mb 0.00 in0.0 mm 0.00 in0.0 mm 0.00 in0.0 mm
10:45 AM 50.0°F10.0°C 48.1°F8.9°C 93% 0.8 mph S1.3 kmh S 2.5 mph4.0 kmh 29.65 in1004.1 mb 0.00 in0.0 mm 0.00 in0.0 mm 0.00 in0.0 mm
10:50 AM 49.9°F9.9°C 48.2°F9.0°C 94% 1.1 mph S1.8 kmh S 4.9 mph7.9 kmh 29.65 in1004.1 mb 0.01 in0.3 mm 0.12 in3.0 mm 0.01 in0.3 mm
10:55 AM 50.0°F10.0°C 48.6°F9.2°C 95% 1.4 mph E2.3 kmh E 4.9 mph7.9 kmh 29.64 in1003.7 mb 0.01 in0.3 mm 0.00 in0.0 mm 0.01 in0.3 mm
11:00 AM 50.0°F10.0°C 48.7°F9.3°C 95% 0.5 mph ESE0.8 kmh ESE 2.5 mph4.0 kmh 29.64 in1003.7 mb 0.01 in0.3 mm 0.00 in0.0 mm 0.01 in0.3 mm
11:05 AM 50.2°F10.1°C 49.1°F9.5°C 96% 0.6 mph SE1.0 kmh SE 2.5 mph4.0 kmh 29.65 in1004.1 mb 0.01 in0.3 mm 0.00 in0.0 mm 0.01 in0.3 mm
11:10 AM 50.3°F10.2°C 49.2°F9.6°C 96% Calm Calm -- 29.65 in1004.1 mb 0.01 in0.3 mm 0.00 in0.0 mm 0.01 in0.3 mm
11:15 AM 50.4°F10.2°C 49.6°F9.8°C 97% 0.1 mph ENE0.2 kmh ENE 2.5 mph4.0 kmh 29.65 in1004.1 mb 0.01 in0.3 mm 0.00 in0.0 mm 0.01 in0.3 mm
11:20 AM 50.4°F10.2°C 49.6°F9.8°C 97% 0.3 mph SE0.5 kmh SE 2.5 mph4.0 kmh 29.65 in1004.1 mb 0.02 in0.5 mm 0.12 in3.0 mm 0.02 in0.5 mm
11:25 AM 50.5°F10.3°C 49.8°F9.9°C 97% Calm Calm -- 29.64 in1003.7 mb 0.02 in0.5 mm 0.00 in0.0 mm 0.02 in0.5 mm
11:30 AM 50.5°F10.3°C 49.9°F9.9°C 98% 0.2 mph S0.3 kmh S 2.5 mph4.0 kmh 29.64 in1003.7 mb 0.02 in0.5 mm 0.00 in0.0 mm 0.02 in0.5 mm
11:35 AM 50.4°F10.2°C 49.9°F9.9°C 98% Calm Calm -- 29.63 in1003.4 mb 0.02 in0.5 mm 0.00 in0.0 mm 0.02 in0.5 mm
11:40 AM 50.4°F10.2°C 49.9°F9.9°C 98% Calm Calm -- 29.64 in1003.7 mb 0.02 in0.5 mm 0.00 in0.0 mm 0.02 in0.5 mm
11:45 AM 50.4°F10.2°C 50.1°F10.1°C 99% Calm Calm 2.5 mph4.0 kmh 29.64 in1003.7 mb 0.02 in0.5 mm 0.00 in0.0 mm 0.02 in0.5 mm
11:50 AM 50.4°F10.2°C 50.1°F10.1°C 99% 0.6 mph SE1.0 kmh SE 2.5 mph4.0 kmh 29.63 in1003.4 mb 0.01 in0.3 mm 0.00 in0.0 mm 0.02 in0.5 mm
11:55 AM 50.5°F10.3°C 50.2°F10.1°C 99% 0.3 mph SSE0.5 kmh SSE 2.5 mph4.0 kmh 29.63 in1003.4 mb 0.01 in0.3 mm 0.00 in0.0 mm 0.02 in0.5 mm
12:00 PM 50.5°F10.3°C 50.2°F10.1°C 99% 0.5 mph SSE0.8 kmh SSE 2.5 mph4.0 kmh 29.62 in1003.0 mb 0.01 in0.3 mm 0.00 in0.0 mm 0.02 in0.5 mm
12:05 PM 50.5°F10.3°C 50.2°F10.1°C 99% 0.2 mph S0.3 kmh S 2.5 mph4.0 kmh 29.62 in1003.0 mb 0.01 in0.3 mm 0.00 in0.0 mm 0.02 in0.5 mm
12:10 PM 50.6°F10.3°C 50.3°F10.2°C 99% 0.1 mph S0.2 kmh S 2.5 mph4.0 kmh 29.62 in1003.0 mb 0.01 in0.3 mm 0.00 in0.0 mm 0.02 in0.5 mm
12:15 PM 50.7°F10.4°C 50.4°F10.2°C 99% 2.0 mph S3.2 kmh S 4.9 mph7.9 kmh 29.62 in1003.0 mb 0.01 in0.3 mm 0.00 in0.0 mm 0.02 in0.5 mm
12:20 PM 50.8°F10.4°C 50.5°F10.3°C 99% 2.9 mph SSE4.7 kmh SSE 7.4 mph11.9 kmh 29.61 in1002.7 mb 0.00 in0.0 mm 0.00 in0.0 mm 0.02 in0.5 mm
12:25 PM 50.9°F10.5°C 50.6°F10.3°C 99% 2.6 mph SSE4.2 kmh SSE 7.4 mph11.9 kmh 29.61 in1002.7 mb 0.02 in0.5 mm 0.24 in6.1 mm 0.04 in1.0 mm
12:30 PM 51.1°F10.6°C 50.8°F10.4°C 99% 2.7 mph S4.3 kmh S 7.4 mph11.9 kmh 29.61 in1002.7 mb 0.02 in0.5 mm 0.00 in0.0 mm 0.04 in1.0 mm
12:35 PM 51.2°F10.7°C 50.8°F10.4°C 98% 3.6 mph S5.8 kmh S 7.4 mph11.9 kmh 29.60 in1002.4 mb 0.02 in0.5 mm 0.00 in0.0 mm 0.04 in1.0 mm
12:40 PM 51.3°F10.7°C 50.8°F10.4°C 98% 3.6 mph SSE5.8 kmh SSE 7.4 mph11.9 kmh 29.60 in1002.4 mb 0.02 in0.5 mm 0.00 in0.0 mm 0.04 in1.0 mm
12:45 PM 51.5°F10.8°C 51.0°F10.6°C 98% 3.9 mph SSE6.3 kmh SSE 7.4 mph11.9 kmh 29.59 in1002.0 mb 0.02 in0.5 mm 0.00 in0.0 mm 0.04 in1.0 mm
12:50 PM 51.7°F10.9°C 51.1°F10.6°C 98% 3.2 mph SE5.1 kmh SE 4.9 mph7.9 kmh 29.59 in1002.0 mb 0.02 in0.5 mm 0.00 in0.0 mm 0.04 in1.0 mm
12:55 PM 51.9°F11.1°C 51.4°F10.8°C 98% 4.1 mph SSE6.6 kmh SSE 7.4 mph11.9 kmh 29.59 in1002.0 mb 0.02 in0.5 mm 0.00 in0.0 mm 0.04 in1.0 mm
01:00 PM 52.1°F11.2°C 51.6°F10.9°C 98% 4.7 mph SSE7.6 kmh SSE 9.8 mph15.8 kmh 29.59 in1002.0 mb 0.02 in0.5 mm 0.00 in0.0 mm 0.04 in1.0 mm
01:05 PM 52.3°F11.3°C 51.7°F10.9°C 98% 5.9 mph S9.5 kmh S 9.8 mph15.8 kmh 29.58 in1001.7 mb 0.02 in0.5 mm 0.00 in0.0 mm 0.04 in1.0 mm
01:10 PM 52.4°F11.3°C 51.9°F11.1°C 98% 2.9 mph SE4.7 kmh SE 9.8 mph15.8 kmh 29.58 in1001.7 mb 0.02 in0.5 mm 0.00 in0.0 mm 0.04 in1.0 mm
01:15 PM 52.6°F11.4°C 52.0°F11.1°C 98% 2.0 mph SSE3.2 kmh SSE 7.4 mph11.9 kmh 29.58 in1001.7 mb 0.02 in0.5 mm 0.00 in0.0 mm 0.04 in1.0 mm
01:20 PM 52.7°F11.5°C 52.0°F11.1°C 97% 2.4 mph S3.9 kmh S 7.4 mph11.9 kmh 29.58 in1001.7 mb 0.02 in0.5 mm 0.00 in0.0 mm 0.04 in1.0 mm
01:25 PM 52.8°F11.6°C 52.2°F11.2°C 98% 3.1 mph S5.0 kmh S 9.8 mph15.8 kmh 29.58 in1001.7 mb 0.00 in0.0 mm 0.00 in0.0 mm 0.04 in1.0 mm
01:30 PM 53.0°F11.7°C 52.2°F11.2°C 97% 2.9 mph SSE4.7 kmh SSE 7.4 mph11.9 kmh 29.58 in1001.7 mb 0.00 in0.0 mm 0.00 in0.0 mm 0.04 in1.0 mm
01:35 PM 53.1°F11.7°C 52.4°F11.3°C 97% 2.8 mph ESE4.5 kmh ESE 9.8 mph15.8 kmh 29.58 in1001.7 mb 0.00 in0.0 mm 0.00 in0.0 mm 0.04 in1.0 mm
01:40 PM 53.2°F11.8°C 52.4°F11.3°C 97% 1.1 mph SSE1.8 kmh SSE 2.5 mph4.0 kmh 29.58 in1001.7 mb 0.00 in0.0 mm 0.00 in0.0 mm 0.04 in1.0 mm
01:45 PM 53.4°F11.9°C 52.6°F11.4°C 97% 2.9 mph SE4.7 kmh SE 7.4 mph11.9 kmh 29.57 in1001.4 mb 0.00 in0.0 mm 0.00 in0.0 mm 0.04 in1.0 mm
01:50 PM 53.4°F11.9°C 52.6°F11.4°C 97% 2.7 mph SE4.3 kmh SE 9.8 mph15.8 kmh 29.58 in1001.7 mb 0.00 in0.0 mm 0.00 in0.0 mm 0.04 in1.0 mm
01:55 PM 53.4°F11.9°C 52.6°F11.4°C 97% 1.6 mph SSE2.6 kmh SSE 4.9 mph7.9 kmh 29.58 in1001.7 mb 0.00 in0.0 mm 0.00 in0.0 mm 0.04 in1.0 mm
02:00 PM 53.5°F11.9°C 52.7°F11.5°C 97% 1.5 mph SSE2.4 kmh SSE 7.4 mph11.9 kmh 29.58 in1001.7 mb 0.00 in0.0 mm 0.00 in0.0 mm 0.04 in1.0 mm
02:05 PM 53.6°F12.0°C 52.8°F11.6°C 97% 1.9 mph S3.1 kmh S 4.9 mph7.9 kmh 29.57 in1001.4 mb 0.00 in0.0 mm 0.00 in0.0 mm 0.04 in1.0 mm
02:10 PM 53.6°F12.0°C 52.8°F11.6°C 97% 0.8 mph S1.3 kmh S 4.9 mph7.9 kmh 29.57 in1001.4 mb 0.00 in0.0 mm 0.00 in0.0 mm 0.04 in1.0 mm
02:15 PM 53.6°F12.0°C 52.8°F11.6°C 97% 2.1 mph SE3.4 kmh SE 7.4 mph11.9 kmh 29.57 in1001.4 mb 0.00 in0.0 mm 0.00 in0.0 mm 0.04 in1.0 mm
02:20 PM 53.6°F12.0°C 52.8°F11.6°C 97% 0.4 mph E0.6 kmh E 2.5 mph4.0 kmh 29.57 in1001.4 mb 0.01 in0.3 mm 0.12 in3.0 mm 0.05 in1.3 mm
02:25 PM 53.7°F12.1°C 52.9°F11.6°C 97% 0.9 mph ESE1.4 kmh ESE 4.9 mph7.9 kmh 29.57 in1001.4 mb 0.01 in0.3 mm 0.00 in0.0 mm 0.05 in1.3 mm
02:30 PM 53.8°F12.1°C 53.0°F11.7°C 97% 1.4 mph SE2.3 kmh SE 4.9 mph7.9 kmh 29.57 in1001.4 mb 0.02 in0.5 mm 0.12 in3.0 mm 0.06 in1.5 mm
02:35 PM 53.8°F12.1°C 53.0°F11.7°C 97% 1.7 mph SE2.7 kmh SE 4.9 mph7.9 kmh 29.57 in1001.4 mb 0.02 in0.5 mm 0.00 in0.0 mm 0.06 in1.5 mm
02:40 PM 53.8°F12.1°C 53.0°F11.7°C 97% 2.1 mph SE3.4 kmh SE 4.9 mph7.9 kmh 29.57 in1001.4 mb 0.02 in0.5 mm 0.00 in0.0 mm 0.06 in1.5 mm
02:45 PM 54.0°F12.2°C 53.2°F11.8°C 97% 2.0 mph SE3.2 kmh SE 4.9 mph7.9 kmh 29.57 in1001.4 mb 0.02 in0.5 mm 0.00 in0.0 mm 0.06 in1.5 mm
02:50 PM 54.0°F12.2°C 53.2°F11.8°C 97% 0.9 mph SE1.4 kmh SE 4.9 mph7.9 kmh 29.57 in1001.4 mb 0.02 in0.5 mm 0.00 in0.0 mm 0.06 in1.5 mm
02:55 PM 54.0°F12.2°C 53.2°F11.8°C 97% 0.7 mph E1.1 kmh E 4.9 mph7.9 kmh 29.57 in1001.4 mb 0.03 in0.8 mm 0.12 in3.0 mm 0.07 in1.8 mm
03:00 PM 54.0°F12.2°C 53.2°F11.8°C 97% 0.8 mph ESE1.3 kmh ESE 2.5 mph4.0 kmh 29.57 in1001.4 mb 0.03 in0.8 mm 0.00 in0.0 mm 0.07 in1.8 mm
03:05 PM 54.0°F12.2°C 53.2°F11.8°C 97% 0.4 mph SSE0.6 kmh SSE 2.5 mph4.0 kmh 29.56 in1001.0 mb 0.03 in0.8 mm 0.00 in0.0 mm 0.07 in1.8 mm
03:10 PM 54.0°F12.2°C 53.2°F11.8°C 97% 0.2 mph S0.3 kmh S 2.5 mph4.0 kmh 29.57 in1001.4 mb 0.03 in0.8 mm 0.00 in0.0 mm 0.07 in1.8 mm
03:15 PM 54.1°F12.3°C 53.2°F11.8°C 97% 0.5 mph SSE0.8 kmh SSE 2.5 mph4.0 kmh 29.56 in1001.0 mb 0.04 in1.0 mm 0.12 in3.0 mm 0.08 in2.0 mm
03:20 PM 54.1°F12.3°C 53.3°F11.8°C 97% 1.0 mph SSE1.6 kmh SSE 2.5 mph4.0 kmh 29.57 in1001.4 mb 0.03 in0.8 mm 0.00 in0.0 mm 0.08 in2.0 mm
03:25 PM 54.1°F12.3°C 53.3°F11.8°C 97% Calm Calm -- 29.57 in1001.4 mb 0.03 in0.8 mm 0.00 in0.0 mm 0.08 in2.0 mm
03:30 PM 54.1°F12.3°C 53.3°F11.8°C 97% Calm Calm -- 29.57 in1001.4 mb 0.02 in0.5 mm 0.00 in0.0 mm 0.08 in2.0 mm
03:35 PM 54.3°F12.4°C 53.5°F11.9°C 97% Calm Calm -- 29.58 in1001.7 mb 0.02 in0.5 mm 0.00 in0.0 mm 0.08 in2.0 mm
03:40 PM 54.3°F12.4°C 53.5°F11.9°C 97% Calm Calm -- 29.57 in1001.4 mb 0.02 in0.5 mm 0.00 in0.0 mm 0.08 in2.0 mm
03:45 PM 54.3°F12.4°C 53.5°F11.9°C 97% Calm Calm -- 29.57 in1001.4 mb 0.02 in0.5 mm 0.00 in0.0 mm 0.08 in2.0 mm
03:50 PM 54.3°F12.4°C 53.5°F11.9°C 97% Calm Calm -- 29.57 in1001.4 mb 0.03 in0.8 mm 0.12 in3.0 mm 0.09 in2.3 mm
03:55 PM 54.3°F12.4°C 53.5°F11.9°C 97% Calm Calm -- 29.58 in1001.7 mb 0.02 in0.5 mm 0.00 in0.0 mm 0.09 in2.3 mm
04:00 PM 54.3°F12.4°C 53.5°F11.9°C 97% Calm Calm -- 29.57 in1001.4 mb 0.02 in0.5 mm 0.00 in0.0 mm 0.09 in2.3 mm
04:05 PM 54.3°F12.4°C 53.5°F11.9°C 97% Calm Calm -- 29.57 in1001.4 mb 0.04 in1.0 mm 0.24 in6.1 mm 0.11 in2.8 mm
04:10 PM 54.3°F12.4°C 53.5°F11.9°C 97% Calm Calm -- 29.58 in1001.7 mb 0.04 in1.0 mm 0.00 in0.0 mm 0.11 in2.8 mm
04:15 PM 54.3°F12.4°C 53.5°F11.9°C 97% Calm Calm -- 29.57 in1001.4 mb 0.04 in1.0 mm 0.00 in0.0 mm 0.12 in3.0 mm
04:20 PM 54.3°F12.4°C 53.5°F11.9°C 97% Calm Calm -- 29.57 in1001.4 mb 0.04 in1.0 mm 0.00 in0.0 mm 0.12 in3.0 mm
04:25 PM 54.3°F12.4°C 53.5°F11.9°C 97% Calm Calm -- 29.58 in1001.7 mb 0.04 in1.0 mm 0.00 in0.0 mm 0.12 in3.0 mm
04:30 PM 54.3°F12.4°C 53.5°F11.9°C 97% Calm Calm -- 29.58 in1001.7 mb 0.04 in1.0 mm 0.00 in0.0 mm 0.12 in3.0 mm
04:35 PM 54.4°F12.4°C 53.6°F12.0°C 97% Calm Calm -- 29.59 in1002.0 mb 0.04 in1.0 mm 0.00 in0.0 mm 0.12 in3.0 mm
04:40 PM 54.5°F12.5°C 53.7°F12.1°C 97% Calm Calm -- 29.59 in1002.0 mb 0.04 in1.0 mm 0.00 in0.0 mm 0.12 in3.0 mm
04:45 PM 54.5°F12.5°C 53.7°F12.1°C 97% Calm Calm -- 29.58 in1001.7 mb 0.05 in1.3 mm 0.12 in3.0 mm 0.13 in3.3 mm
04:50 PM 54.5°F12.5°C 53.7°F12.1°C 97% 0.3 mph WNW0.5 kmh WNW 2.5 mph4.0 kmh 29.59 in1002.0 mb 0.04 in1.0 mm 0.00 in0.0 mm 0.13 in3.3 mm
04:55 PM 54.5°F12.5°C 53.7°F12.1°C 97% Calm Calm -- 29.59 in1002.0 mb 0.04 in1.0 mm 0.00 in0.0 mm 0.13 in3.3 mm
05:00 PM 54.5°F12.5°C 53.7°F12.1°C 97% 0.4 mph NW0.6 kmh NW 2.5 mph4.0 kmh 29.59 in1002.0 mb 0.04 in1.0 mm 0.00 in0.0 mm 0.13 in3.3 mm
05:05 PM 54.5°F12.5°C 53.7°F12.1°C 97% 0.1 mph WNW0.2 kmh WNW 2.5 mph4.0 kmh 29.59 in1002.0 mb 0.02 in0.5 mm 0.00 in0.0 mm 0.13 in3.3 mm
05:10 PM 54.5°F12.5°C 53.7°F12.1°C 97% 0.8 mph NNW1.3 kmh NNW 4.9 mph7.9 kmh 29.59 in1002.0 mb 0.03 in0.8 mm 0.12 in3.0 mm 0.14 in3.6 mm
05:15 PM 54.4°F12.4°C 53.6°F12.0°C 97% 0.9 mph NW1.4 kmh NW 2.5 mph4.0 kmh 29.59 in1002.0 mb 0.02 in0.5 mm 0.00 in0.0 mm 0.14 in3.6 mm
05:20 PM 54.3°F12.4°C 53.5°F11.9°C 97% Calm Calm -- 29.58 in1001.7 mb 0.02 in0.5 mm 0.00 in0.0 mm 0.14 in3.6 mm
05:25 PM 54.3°F12.4°C 53.5°F11.9°C 97% 0.3 mph NW0.5 kmh NW 2.5 mph4.0 kmh 29.59 in1002.0 mb 0.02 in0.5 mm 0.00 in0.0 mm 0.14 in3.6 mm
05:30 PM 54.1°F12.3°C 53.3°F11.8°C 97% Calm Calm -- 29.59 in1002.0 mb 0.02 in0.5 mm 0.00 in0.0 mm 0.14 in3.6 mm
05:35 PM 54.1°F12.3°C 53.3°F11.8°C 97% 1.1 mph NW1.8 kmh NW 4.9 mph7.9 kmh 29.59 in1002.0 mb 0.02 in0.5 mm 0.00 in0.0 mm 0.14 in3.6 mm
05:40 PM 54.1°F12.3°C 53.2°F11.8°C 97% 1.3 mph NW2.1 kmh NW 4.9 mph7.9 kmh 29.59 in1002.0 mb 0.02 in0.5 mm 0.00 in0.0 mm 0.14 in3.6 mm
05:45 PM 54.0°F12.2°C 53.2°F11.8°C 97% 0.7 mph N1.1 kmh N 4.9 mph7.9 kmh 29.59 in1002.0 mb 0.01 in0.3 mm 0.00 in0.0 mm 0.14 in3.6 mm
05:50 PM 54.0°F12.2°C 53.1°F11.7°C 97% 0.7 mph N1.1 kmh N 2.5 mph4.0 kmh 29.59 in1002.0 mb 0.02 in0.5 mm 0.12 in3.0 mm 0.15 in3.8 mm
05:55 PM 53.8°F12.1°C 53.0°F11.7°C 97% 0.9 mph NW1.4 kmh NW 4.9 mph7.9 kmh 29.59 in1002.0 mb 0.02 in0.5 mm 0.00 in0.0 mm 0.15 in3.8 mm
06:00 PM 53.7°F12.1°C 53.0°F11.7°C 97% 0.8 mph NW1.3 kmh NW 4.9 mph7.9 kmh 29.59 in1002.0 mb 0.04 in1.0 mm 0.02 in0.5 mm 0.17 in4.3 mm
06:05 PM 53.6°F12.0°C 53.0°F11.7°C 98% 1.5 mph N2.4 kmh N 4.9 mph7.9 kmh 29.59 in1002.0 mb 0.04 in1.0 mm 0.00 in0.0 mm 0.17 in4.3 mm
06:10 PM 53.5°F11.9°C 52.9°F11.6°C 98% 0.8 mph NW1.3 kmh NW 2.5 mph4.0 kmh 29.60 in1002.4 mb 0.04 in1.0 mm 0.00 in0.0 mm 0.18 in4.6 mm
06:15 PM 53.4°F11.9°C 52.8°F11.6°C 98% 0.7 mph NW1.1 kmh NW 4.9 mph7.9 kmh 29.60 in1002.4 mb 0.04 in1.0 mm 0.00 in0.0 mm 0.18 in4.6 mm
06:20 PM 53.4°F11.9°C 52.8°F11.6°C 98% 1.3 mph N2.1 kmh N 4.9 mph7.9 kmh 29.61 in1002.7 mb 0.04 in1.0 mm 0.00 in0.0 mm 0.18 in4.6 mm
06:25 PM 53.2°F11.8°C 52.6°F11.4°C 98% 1.0 mph NNW1.6 kmh NNW 4.9 mph7.9 kmh 29.60 in1002.4 mb 0.04 in1.0 mm 0.00 in0.0 mm 0.18 in4.6 mm
06:30 PM 53.2°F11.8°C 52.6°F11.4°C 98% 1.3 mph N2.1 kmh N 4.9 mph7.9 kmh 29.60 in1002.4 mb 0.05 in1.3 mm 0.12 in3.0 mm 0.19 in4.8 mm
06:35 PM 53.2°F11.8°C 52.6°F11.4°C 98% 0.3 mph N0.5 kmh N 2.5 mph4.0 kmh 29.60 in1002.4 mb 0.05 in1.3 mm 0.00 in0.0 mm 0.19 in4.8 mm
06:40 PM 53.2°F11.8°C 52.6°F11.4°C 98% 0.6 mph NNW1.0 kmh NNW 2.5 mph4.0 kmh 29.61 in1002.7 mb 0.05 in1.3 mm 0.00 in0.0 mm 0.19 in4.8 mm
06:45 PM 53.2°F11.8°C 52.6°F11.4°C 98% 0.9 mph N1.4 kmh N 2.5 mph4.0 kmh 29.61 in1002.7 mb 0.06 in1.5 mm 0.12 in3.0 mm 0.20 in5.1 mm
06:50 PM 53.2°F11.8°C 52.6°F11.4°C 98% Calm Calm 2.5 mph4.0 kmh 29.61 in1002.7 mb 0.05 in1.3 mm 0.00 in0.0 mm 0.20 in5.1 mm
06:55 PM 53.2°F11.8°C 52.6°F11.4°C 98% 0.7 mph N1.1 kmh N 2.5 mph4.0 kmh 29.61 in1002.7 mb 0.05 in1.3 mm 0.00 in0.0 mm 0.20 in5.1 mm
07:00 PM 53.2°F11.8°C 52.6°F11.4°C 98% Calm Calm -- 29.61 in1002.7 mb 0.03 in0.8 mm 0.00 in0.0 mm 0.20 in5.1 mm
07:05 PM 53.2°F11.8°C 52.6°F11.4°C 98% 0.2 mph NNE0.3 kmh NNE 2.5 mph4.0 kmh 29.62 in1003.0 mb 0.03 in0.8 mm 0.00 in0.0 mm 0.20 in5.1 mm
07:10 PM 53.2°F11.8°C 52.4°F11.3°C 97% Calm Calm -- 29.62 in1003.0 mb 0.03 in0.8 mm 0.00 in0.0 mm 0.21 in5.3 mm
07:15 PM 53.3°F11.8°C 52.5°F11.4°C 97% 0.2 mph NW0.3 kmh NW 2.5 mph4.0 kmh 29.61 in1002.7 mb 0.03 in0.8 mm 0.00 in0.0 mm 0.21 in5.3 mm
07:20 PM 53.4°F11.9°C 52.6°F11.4°C 97% 0.2 mph NW0.3 kmh NW 2.5 mph4.0 kmh 29.61 in1002.7 mb 0.03 in0.8 mm 0.00 in0.0 mm 0.21 in5.3 mm
07:25 PM 53.4°F11.9°C 52.6°F11.4°C 97% 0.1 mph NW0.2 kmh NW 2.5 mph4.0 kmh 29.62 in1003.0 mb 0.03 in0.8 mm 0.00 in0.0 mm 0.21 in5.3 mm
07:30 PM 53.4°F11.9°C 52.6°F11.4°C 97% Calm Calm -- 29.62 in1003.0 mb 0.03 in0.8 mm 0.00 in0.0 mm 0.22 in5.6 mm
07:35 PM 53.4°F11.9°C 52.8°F11.6°C 98% 0.4 mph NNW0.6 kmh NNW 2.5 mph4.0 kmh 29.62 in1003.0 mb 0.03 in0.8 mm 0.00 in0.0 mm 0.22 in5.6 mm
07:40 PM 53.4°F11.9°C 52.8°F11.6°C 98% 0.3 mph NW0.5 kmh NW 2.5 mph4.0 kmh 29.62 in1003.0 mb 0.03 in0.8 mm 0.00 in0.0 mm 0.22 in5.6 mm
07:45 PM 53.4°F11.9°C 52.8°F11.6°C 98% 0.1 mph N0.2 kmh N 2.5 mph4.0 kmh 29.62 in1003.0 mb 0.04 in1.0 mm 0.12 in3.0 mm 0.24 in6.1 mm
07:50 PM 53.4°F11.9°C 52.7°F11.5°C 98% Calm Calm -- 29.62 in1003.0 mb 0.04 in1.0 mm 0.00 in0.0 mm 0.24 in6.1 mm
07:55 PM 53.4°F11.9°C 52.8°F11.6°C 98% 0.1 mph 0.2 kmh 2.5 mph4.0 kmh 29.61 in1002.7 mb 0.05 in1.3 mm 0.12 in3.0 mm 0.25 in6.4 mm
08:00 PM 53.4°F11.9°C 52.6°F11.4°C 97% Calm Calm -- 29.62 in1003.0 mb 0.06 in1.5 mm 0.01 in0.3 mm 0.26 in6.6 mm
08:05 PM 53.4°F11.9°C 52.6°F11.4°C 97% 0.2 mph N0.3 kmh N 2.5 mph4.0 kmh 29.62 in1003.0 mb 0.07 in1.8 mm 0.12 in3.0 mm 0.27 in6.9 mm
08:10 PM 53.4°F11.9°C 52.6°F11.4°C 97% Calm Calm -- 29.62 in1003.0 mb 0.06 in1.5 mm 0.00 in0.0 mm 0.27 in6.9 mm
08:15 PM 53.4°F11.9°C 52.6°F11.4°C 97% 0.9 mph NW1.4 kmh NW 4.9 mph7.9 kmh 29.62 in1003.0 mb 0.07 in1.8 mm 0.12 in3.0 mm 0.28 in7.1 mm
08:20 PM 53.4°F11.9°C 52.6°F11.4°C 97% 0.1 mph NW0.2 kmh NW 2.5 mph4.0 kmh 29.62 in1003.0 mb 0.09 in2.3 mm 0.24 in6.1 mm 0.30 in7.6 mm
08:25 PM 53.4°F11.9°C 52.6°F11.4°C 97% 0.2 mph NW0.3 kmh NW 2.5 mph4.0 kmh 29.62 in1003.0 mb 0.09 in2.3 mm 0.00 in0.0 mm 0.30 in7.6 mm
08:30 PM 53.4°F11.9°C 52.8°F11.6°C 98% 0.4 mph WNW0.6 kmh WNW 2.5 mph4.0 kmh 29.62 in1003.0 mb 0.09 in2.3 mm 0.00 in0.0 mm 0.31 in7.9 mm
08:35 PM 53.4°F11.9°C 52.7°F11.5°C 98% 2.5 mph N4.0 kmh N 4.9 mph7.9 kmh 29.62 in1003.0 mb 0.09 in2.3 mm 0.00 in0.0 mm 0.31 in7.9 mm
08:40 PM 53.4°F11.9°C 52.8°F11.6°C 98% 1.9 mph N3.1 kmh N 4.9 mph7.9 kmh 29.62 in1003.0 mb 0.11 in2.8 mm 0.24 in6.1 mm 0.33 in8.4 mm
08:45 PM 53.3°F11.8°C 52.8°F11.6°C 98% 2.1 mph NW3.4 kmh NW 4.9 mph7.9 kmh 29.62 in1003.0 mb 0.09 in2.3 mm 0.00 in0.0 mm 0.33 in8.4 mm
08:50 PM 53.2°F11.8°C 52.6°F11.4°C 98% 1.1 mph NW1.8 kmh NW 4.9 mph7.9 kmh 29.62 in1003.0 mb 0.10 in2.5 mm 0.12 in3.0 mm 0.34 in8.6 mm
08:55 PM 53.1°F11.7°C 52.6°F11.4°C 98% 1.9 mph N3.1 kmh N 7.4 mph11.9 kmh 29.62 in1003.0 mb 0.10 in2.5 mm 0.00 in0.0 mm 0.35 in8.9 mm
09:00 PM 53.1°F11.7°C 52.5°F11.4°C 98% 2.1 mph NW3.4 kmh NW 4.9 mph7.9 kmh 29.63 in1003.4 mb 0.09 in2.3 mm 0.00 in0.0 mm 0.35 in8.9 mm
09:05 PM 52.9°F11.6°C 52.4°F11.3°C 98% 2.4 mph NW3.9 kmh NW 4.9 mph7.9 kmh 29.63 in1003.4 mb 0.10 in2.5 mm 0.12 in3.0 mm 0.37 in9.4 mm
09:10 PM 52.8°F11.6°C 52.3°F11.3°C 98% 2.8 mph NW4.5 kmh NW 7.4 mph11.9 kmh 29.63 in1003.4 mb 0.11 in2.8 mm 0.12 in3.0 mm 0.38 in9.7 mm
09:15 PM 52.7°F11.5°C 52.2°F11.2°C 98% 3.1 mph NW5.0 kmh NW 4.9 mph7.9 kmh 29.63 in1003.4 mb 0.10 in2.5 mm 0.00 in0.0 mm 0.38 in9.7 mm
09:20 PM 52.7°F11.5°C 52.2°F11.2°C 98% 2.3 mph NNW3.7 kmh NNW 4.9 mph7.9 kmh 29.63 in1003.4 mb 0.10 in2.5 mm 0.00 in0.0 mm 0.40 in10.2 mm
09:25 PM 52.6°F11.4°C 52.1°F11.2°C 98% 1.3 mph NW2.1 kmh NW 4.9 mph7.9 kmh 29.63 in1003.4 mb 0.11 in2.8 mm 0.12 in3.0 mm 0.41 in10.4 mm
09:30 PM 52.5°F11.4°C 52.0°F11.1°C 98% 1.5 mph NW2.4 kmh NW 7.4 mph11.9 kmh 29.64 in1003.7 mb 0.12 in3.0 mm 0.12 in3.0 mm 0.43 in10.9 mm
09:35 PM 52.5°F11.4°C 52.0°F11.1°C 98% 1.3 mph N2.1 kmh N 7.4 mph11.9 kmh 29.64 in1003.7 mb 0.12 in3.0 mm 0.00 in0.0 mm 0.43 in10.9 mm
09:40 PM 52.5°F11.4°C 52.0°F11.1°C 98% 1.8 mph NNW2.9 kmh NNW 7.4 mph11.9 kmh 29.64 in1003.7 mb 0.11 in2.8 mm 0.00 in0.0 mm 0.44 in11.2 mm
09:45 PM 52.5°F11.4°C 52.0°F11.1°C 98% 2.0 mph NW3.2 kmh NW 4.9 mph7.9 kmh 29.64 in1003.7 mb 0.11 in2.8 mm 0.00 in0.0 mm 0.44 in11.2 mm
09:50 PM 52.5°F11.4°C 52.0°F11.1°C 98% 0.8 mph NW1.3 kmh NW 2.5 mph4.0 kmh 29.64 in1003.7 mb 0.10 in2.5 mm 0.00 in0.0 mm 0.44 in11.2 mm
09:55 PM 52.5°F11.4°C 52.0°F11.1°C 98% 1.1 mph N1.8 kmh N 4.9 mph7.9 kmh 29.64 in1003.7 mb 0.10 in2.5 mm 0.00 in0.0 mm 0.45 in11.4 mm
10:00 PM 52.5°F11.4°C 52.0°F11.1°C 98% 0.5 mph NW0.8 kmh NW 4.9 mph7.9 kmh 29.65 in1004.1 mb 0.10 in2.5 mm 0.00 in0.0 mm 0.45 in11.4 mm
10:05 PM 52.5°F11.4°C 52.0°F11.1°C 98% 0.3 mph NW0.5 kmh NW 2.5 mph4.0 kmh 29.65 in1004.1 mb 0.08 in2.0 mm 0.00 in0.0 mm 0.45 in11.4 mm
10:10 PM 52.6°F11.4°C 52.1°F11.2°C 98% 0.7 mph N1.1 kmh N 4.9 mph7.9 kmh 29.65 in1004.1 mb 0.07 in1.8 mm 0.00 in0.0 mm 0.45 in11.4 mm
10:15 PM 52.7°F11.5°C 52.2°F11.2°C 98% 1.3 mph NW2.1 kmh NW 4.9 mph7.9 kmh 29.65 in1004.1 mb 0.07 in1.8 mm 0.00 in0.0 mm 0.45 in11.4 mm
10:20 PM 52.7°F11.5°C 52.2°F11.2°C 98% 0.5 mph N0.8 kmh N 4.9 mph7.9 kmh 29.65 in1004.1 mb 0.05 in1.3 mm 0.00 in0.0 mm 0.45 in11.4 mm
10:25 PM 52.7°F11.5°C 52.2°F11.2°C 98% Calm Calm 2.5 mph4.0 kmh 29.65 in1004.1 mb 0.04 in1.0 mm 0.00 in0.0 mm 0.45 in11.4 mm
10:30 PM 52.7°F11.5°C 52.2°F11.2°C 98% 1.4 mph NNW2.3 kmh NNW 4.9 mph7.9 kmh 29.65 in1004.1 mb 0.03 in0.8 mm 0.00 in0.0 mm 0.46 in11.7 mm
10:35 PM 52.7°F11.5°C 52.2°F11.2°C 98% 0.6 mph NNW1.0 kmh NNW 2.5 mph4.0 kmh 29.65 in1004.1 mb 0.03 in0.8 mm 0.00 in0.0 mm 0.46 in11.7 mm
10:40 PM 52.7°F11.5°C 52.2°F11.2°C 98% 0.4 mph NNW0.6 kmh NNW 2.5 mph4.0 kmh 29.65 in1004.1 mb 0.02 in0.5 mm 0.00 in0.0 mm 0.46 in11.7 mm
10:45 PM 52.7°F11.5°C 52.2°F11.2°C 98% 0.5 mph 0.8 kmh 2.5 mph4.0 kmh 29.64 in1003.7 mb 0.02 in0.5 mm 0.00 in0.0 mm 0.46 in11.7 mm
10:50 PM 52.7°F11.5°C 52.2°F11.2°C 98% 1.1 mph N1.8 kmh N 4.9 mph7.9 kmh 29.65 in1004.1 mb 0.02 in0.5 mm 0.00 in0.0 mm 0.46 in11.7 mm
10:55 PM 52.7°F11.5°C 52.2°F11.2°C 98% 1.5 mph NNW2.4 kmh NNW 4.9 mph7.9 kmh 29.65 in1004.1 mb 0.01 in0.3 mm 0.00 in0.0 mm 0.46 in11.7 mm
11:00 PM 52.7°F11.5°C 52.2°F11.2°C 98% 0.6 mph N1.0 kmh N 4.9 mph7.9 kmh 29.64 in1003.7 mb 0.02 in0.5 mm 0.01 in0.3 mm 0.47 in11.9 mm
11:05 PM 52.7°F11.5°C 52.2°F11.2°C 98% 0.6 mph NNW1.0 kmh NNW 2.5 mph4.0 kmh 29.64 in1003.7 mb 0.02 in0.5 mm 0.00 in0.0 mm 0.47 in11.9 mm
11:10 PM 52.7°F11.5°C 52.2°F11.2°C 98% 0.2 mph N0.3 kmh N 2.5 mph4.0 kmh 29.65 in1004.1 mb 0.02 in0.5 mm 0.00 in0.0 mm 0.47 in11.9 mm
11:15 PM 52.7°F11.5°C 52.2°F11.2°C 98% 0.9 mph NNE1.4 kmh NNE 2.5 mph4.0 kmh 29.64 in1003.7 mb 0.02 in0.5 mm 0.00 in0.0 mm 0.47 in11.9 mm
11:20 PM 52.7°F11.5°C 52.2°F11.2°C 98% 0.2 mph NE0.3 kmh NE 2.5 mph4.0 kmh 29.64 in1003.7 mb 0.02 in0.5 mm 0.00 in0.0 mm 0.47 in11.9 mm
11:25 PM 52.7°F11.5°C 52.2°F11.2°C 98% 0.5 mph N0.8 kmh N 2.5 mph4.0 kmh 29.65 in1004.1 mb 0.02 in0.5 mm 0.00 in0.0 mm 0.47 in11.9 mm
11:30 PM 52.7°F11.5°C 52.2°F11.2°C 98% 0.4 mph N0.6 kmh N 2.5 mph4.0 kmh 29.64 in1003.7 mb 0.01 in0.3 mm 0.00 in0.0 mm 0.47 in11.9 mm
11:35 PM 52.9°F11.6°C 52.3°F11.3°C 98% 1.2 mph N1.9 kmh N 4.9 mph7.9 kmh 29.64 in1003.7 mb 0.01 in0.3 mm 0.00 in0.0 mm 0.47 in11.9 mm
11:40 PM 52.9°F11.6°C 52.4°F11.3°C 98% Calm Calm -- 29.65 in1004.1 mb 0.02 in0.5 mm 0.12 in3.0 mm 0.48 in12.2 mm
11:45 PM 52.9°F11.6°C 52.4°F11.3°C 98% 0.6 mph N1.0 kmh N 4.9 mph7.9 kmh 29.64 in1003.7 mb 0.02 in0.5 mm 0.00 in0.0 mm 0.48 in12.2 mm
11:50 PM 52.9°F11.6°C 52.4°F11.3°C 98% 4.3 mph N6.9 kmh N 7.4 mph11.9 kmh 29.63 in1003.4 mb 0.02 in0.5 mm 0.00 in0.0 mm 0.48 in12.2 mm
11:55 PM 52.9°F11.6°C 52.4°F11.3°C 98% 0.5 mph NW0.8 kmh NW 2.5 mph4.0 kmh 29.63 in1003.4 mb 0.02 in0.5 mm 0.00 in0.0 mm 0.48 in12.2 mm